Time;durP1;ratioP1;P1;durP2;ratioP2;P2;SDS_P1;SDS_P2;PMS_P1;PMS_P2;Temp;Humidity;BMP_temperature;BMP_pressure;BME280_temperature;BME280_humidity;BME280_pressure;Samples;Min_cycle;Max_cycle;Signal;HPM_P1;HPM_P2
2023/10/04 00:00:20;;;;;;;9.18;3.70;;;;;;;23.50;49.08;100580.50;5114621;28;20051;-65
2023/10/04 00:02:52;;;;;;;7.13;3.33;;;;;;;23.48;48.82;100581.69;5114462;28;20062;-64
2023/10/04 00:05:23;;;;;;;6.85;3.40;;;;;;;23.49;48.92;100583.41;5114485;28;20071;-65
2023/10/04 00:07:56;;;;;;;6.45;3.38;;;;;;;23.47;48.71;100596.31;5114261;28;20051;-65
2023/10/04 00:10:25;;;;;;;7.03;3.40;;;;;;;23.47;48.91;100590.88;5114454;28;20134;-65
2023/10/04 00:12:54;;;;;;;6.38;3.05;;;;;;;23.45;48.50;100588.34;5113987;28;20497;-64
2023/10/04 00:15:25;;;;;;;8.18;3.53;;;;;;;23.45;48.69;100587.44;5114266;28;20058;-65
2023/10/04 00:17:56;;;;;;;7.18;3.38;;;;;;;23.41;48.72;100582.34;5114242;28;20085;-65
2023/10/04 00:20:31;;;;;;;7.75;3.42;;;;;;;23.42;48.49;100583.19;5113996;28;20040;-64
2023/10/04 00:23:02;;;;;;;7.20;3.13;;;;;;;23.42;48.89;100592.22;5114180;28;20508;-65
2023/10/04 00:25:31;;;;;;;6.85;3.85;;;;;;;23.40;48.75;100591.53;5114162;28;20157;-65
2023/10/04 00:27:59;;;;;;;7.03;3.40;;;;;;;23.40;48.79;100583.38;5114076;28;20469;-65
2023/10/04 00:30:29;;;;;;;7.65;3.30;;;;;;;23.39;48.85;100589.84;5113830;28;20052;-65
2023/10/04 00:33:02;;;;;;;7.05;3.85;;;;;;;23.37;48.41;100589.16;5113968;28;20142;-66
2023/10/04 00:35:31;;;;;;;7.35;3.95;;;;;;;23.37;48.92;100588.31;5113933;28;20048;-66
2023/10/04 00:38:01;;;;;;;5.88;3.35;;;;;;;23.36;48.83;100594.78;5113722;28;20047;-66
2023/10/04 00:40:31;;;;;;;7.00;3.60;;;;;;;23.35;48.89;100593.91;5113634;28;20522;-66
2023/10/04 00:43:02;;;;;;;6.57;3.78;;;;;;;23.35;49.02;100609.38;5112552;28;20085;-66
2023/10/04 00:45:32;;;;;;;7.00;3.30;;;;;;;23.33;48.88;100606.81;5113399;28;20134;-66
2023/10/04 00:48:09;;;;;;;6.95;3.53;;;;;;;23.33;49.11;100615.00;5113774;28;20051;-65
2023/10/04 00:50:38;;;;;;;7.35;3.38;;;;;;;23.32;48.89;100612.44;5113704;28;20454;-66
2023/10/04 00:53:10;;;;;;;6.70;3.38;;;;;;;23.31;49.02;100618.91;5113411;28;20079;-66
2023/10/04 00:55:44;;;;;;;6.78;3.17;;;;;;;23.30;49.16;100618.06;5113592;28;20058;-66
2023/10/04 00:58:15;;;;;;;5.72;3.20;;;;;;;23.29;49.06;100627.25;5113210;28;20097;-66
2023/10/04 01:00:43;;;;;;;5.85;3.03;;;;;;;23.29;49.10;100615.50;5113350;28;20055;-65
2023/10/04 01:03:15;;;;;;;5.63;3.00;;;;;;;23.29;48.95;100627.25;5113163;28;20135;-65
2023/10/04 01:05:47;;;;;;;7.03;3.42;;;;;;;23.27;48.82;100629.28;5113273;28;20054;-65
2023/10/04 01:08:16;;;;;;;5.55;3.17;;;;;;;23.28;49.13;100630.13;5113302;28;20040;-64
2023/10/04 01:10:46;;;;;;;8.68;3.83;;;;;;;23.26;48.92;100621.25;5113254;28;20057;-64
2023/10/04 01:13:17;;;;;;;7.47;3.60;;;;;;;23.26;48.76;100632.16;5112941;28;20057;-66
2023/10/04 01:15:46;;;;;;;7.40;3.78;;;;;;;23.24;49.24;100628.75;5113153;28;20115;-65
2023/10/04 01:18:16;;;;;;;7.80;3.55;;;;;;;23.22;48.88;100619.91;5113026;28;20052;-65
2023/10/04 01:20:46;;;;;;;6.57;3.33;;;;;;;23.23;49.27;100625.16;5113022;28;20070;-65
2023/10/04 01:23:17;;;;;;;6.22;2.78;;;;;;;23.21;49.08;100619.03;5112709;28;20094;-65
2023/10/04 01:25:47;;;;;;;7.15;3.47;;;;;;;23.21;49.06;100624.50;5113029;28;20122;-65
2023/10/04 01:28:18;;;;;;;6.97;3.70;;;;;;;23.20;48.82;100622.78;5112202;28;20043;-65
2023/10/04 01:30:48;;;;;;;6.22;3.40;;;;;;;23.19;49.18;100626.53;5112582;28;20100;-65
2023/10/04 01:33:18;;;;;;;5.45;3.13;;;;;;;23.19;49.23;100621.09;5112821;28;20047;-65
2023/10/04 01:35:51;;;;;;;6.70;3.60;;;;;;;23.18;49.22;100624.81;5112459;28;20043;-66
2023/10/04 01:38:24;;;;;;;;;;;;;;;23.17;49.14;100628.56;5113267;28;20400;-66
2023/10/04 01:40:54;;;;;;;;;;;;;;;23.16;49.44;100624.13;5113252;28;20014;-65
2023/10/04 01:43:24;;;;;;;6.95;3.20;;;;;;;23.16;49.54;100625.97;5112566;28;20448;-66
2023/10/04 01:45:57;;;;;;;7.97;3.80;;;;;;;23.14;49.42;100629.72;5112470;28;20147;-66
2023/10/04 01:48:30;;;;;;;6.28;3.17;;;;;;;23.13;49.21;100624.47;5112291;28;20138;-66
2023/10/04 01:51:02;;;;;;;7.10;3.50;;;;;;;23.12;49.29;100634.50;5112473;28;20381;-66
2023/10/04 01:53:34;;;;;;;7.07;3.55;;;;;;;23.12;49.34;100642.66;5111845;28;20052;-66
2023/10/04 01:56:06;;;;;;;6.90;3.55;;;;;;;23.11;49.05;100642.81;5112295;28;20201;-66
2023/10/04 01:58:37;;;;;;;7.35;3.78;;;;;;;23.11;48.92;100645.53;5112129;28;20480;-66
2023/10/04 02:01:08;;;;;;;7.35;3.65;;;;;;;23.10;49.37;100646.56;5112641;28;20047;-66
2023/10/04 02:03:37;;;;;;;7.65;3.25;;;;;;;23.08;49.23;100657.63;5112299;28;20047;-66
2023/10/04 02:06:07;;;;;;;5.95;3.35;;;;;;;23.08;49.01;100660.34;5112295;28;20047;-65
2023/10/04 02:08:39;;;;;;;6.95;3.35;;;;;;;23.05;48.70;100665.22;5112192;28;20497;-65
2023/10/04 02:11:08;;;;;;;6.82;3.60;;;;;;;23.02;48.76;100669.13;5111916;28;20430;-65
2023/10/04 02:13:37;;;;;;;6.72;3.25;;;;;;;23.00;48.64;100668.44;5111962;28;20649;-65
2023/10/04 02:16:06;;;;;;;6.07;3.35;;;;;;;22.97;48.59;100676.94;5112181;28;20131;-65
2023/10/04 02:18:34;;;;;;;5.32;3.30;;;;;;;22.97;48.82;100673.34;5112197;28;20048;-65
2023/10/04 02:21:03;;;;;;;6.85;3.30;;;;;;;22.95;48.91;100694.41;5111992;28;20039;-65
2023/10/04 02:23:32;;;;;;;7.30;3.55;;;;;;;22.92;49.06;100679.28;5112011;28;20098;-65
2023/10/04 02:26:05;;;;;;;6.95;3.15;;;;;;;22.90;49.11;100658.72;5111927;28;20048;-65
2023/10/04 02:28:35;;;;;;;7.47;3.38;;;;;;;22.87;48.96;100664.44;5112104;28;20070;-65
2023/10/04 02:31:03;;;;;;;8.05;3.45;;;;;;;22.84;49.18;100671.06;5111922;28;20044;-65
2023/10/04 02:33:38;;;;;;;7.00;3.33;;;;;;;22.80;49.26;100667.81;5112083;28;20039;-65
2023/10/04 02:36:07;;;;;;;8.02;2.80;;;;;;;22.78;49.45;100679.88;5111794;28;20096;-66
2023/10/04 02:38:36;;;;;;;6.65;3.20;;;;;;;22.74;49.45;100676.59;5111644;28;20043;-65
2023/10/04 02:41:06;;;;;;;8.07;3.10;;;;;;;22.73;49.65;100683.03;5112023;28;20044;-66
2023/10/04 02:43:36;;;;;;;7.65;3.45;;;;;;;22.70;49.73;100683.38;5111923;28;20120;-65
2023/10/04 02:46:05;;;;;;;7.85;3.20;;;;;;;22.69;49.79;100698.00;5111958;28;20131;-64
2023/10/04 02:48:35;;;;;;;8.20;3.20;;;;;;;22.67;49.85;100697.28;5111975;28;20052;-65
2023/10/04 02:51:05;;;;;;;6.25;2.97;;;;;;;22.66;49.86;100701.00;5111814;28;20047;-65
2023/10/04 02:53:34;;;;;;;6.32;3.03;;;;;;;22.67;50.01;100708.16;5111872;28;20134;-64
2023/10/04 02:56:10;;;;;;;5.43;3.13;;;;;;;22.65;50.03;100714.75;5111863;28;20047;-65
2023/10/04 02:58:39;;;;;;;6.72;2.90;;;;;;;22.64;49.81;100708.47;5111744;28;20492;-65
2023/10/04 03:01:08;;;;;;;5.00;2.88;;;;;;;22.64;49.98;100713.91;5111688;28;20484;-65
2023/10/04 03:03:37;;;;;;;5.55;2.80;;;;;;;22.64;49.95;100707.63;5111469;28;20047;-64
2023/10/04 03:06:06;;;;;;;5.55;2.80;;;;;;;22.64;49.96;100719.34;5113796;28;20123;-65
2023/10/04 03:08:35;;;;;;;7.22;2.90;;;;;;;22.64;50.15;100727.50;5115452;28;20044;-65
2023/10/04 03:11:03;;;;;;;6.75;2.75;;;;;;;22.63;50.11;100724.94;5115296;28;20097;-65
2023/10/04 03:13:37;;;;;;;5.30;2.67;;;;;;;22.60;49.90;100720.69;5098046;28;20498;-65
2023/10/04 03:16:06;;;;;;;5.22;2.75;;;;;;;22.61;49.77;100725.13;5115303;28;20092;-65
2023/10/04 03:18:37;;;;;;;5.78;3.05;;;;;;;22.61;49.89;100716.97;5115684;28;20085;-65
2023/10/04 03:21:13;;;;;;;4.57;2.70;;;;;;;22.61;50.00;100727.84;5115650;28;20096;-65
2023/10/04 03:23:42;;;;;;;5.32;2.63;;;;;;;22.60;50.13;100733.44;5115230;28;20138;-65
2023/10/04 03:26:12;;;;;;;6.35;2.83;;;;;;;22.59;50.10;100738.03;5115075;28;20093;-65
2023/10/04 03:28:42;;;;;;;5.13;2.70;;;;;;;22.59;50.03;100727.16;5115023;28;20134;-65
2023/10/04 03:31:12;;;;;;;5.97;2.83;;;;;;;22.59;50.25;100737.16;5115247;28;20134;-64
2023/10/04 03:33:42;;;;;;;5.30;2.75;;;;;;;22.60;49.90;100747.88;5115097;28;20051;-65
2023/10/04 03:36:14;;;;;;;5.85;2.80;;;;;;;22.59;50.03;100751.63;5114885;28;20059;-65
2023/10/04 03:38:43;;;;;;;5.40;2.67;;;;;;;22.60;50.12;100747.03;5115006;28;20053;-65
2023/10/04 03:41:12;;;;;;;4.38;2.42;;;;;;;22.58;50.28;100758.03;5114745;28;20324;-65
2023/10/04 03:43:43;;;;;;;5.65;2.85;;;;;;;22.59;50.12;100759.78;5115032;28;20168;-65
2023/10/04 03:46:18;;;;;;;5.57;2.65;;;;;;;22.58;50.13;100752.59;5114877;28;20056;-65
2023/10/04 03:48:47;;;;;;;4.65;2.40;;;;;;;22.56;49.94;100752.75;5114698;28;20130;-65
2023/10/04 03:51:20;;;;;;;5.30;2.33;;;;;;;22.55;49.94;100753.78;5114750;28;20047;-65
2023/10/04 03:53:50;;;;;;;5.05;2.35;;;;;;;22.54;49.95;100756.66;5114504;28;20054;-65
2023/10/04 03:56:22;;;;;;;4.03;2.35;;;;;;;22.55;50.17;100763.78;5096583;28;20055;-65
2023/10/04 03:58:51;;;;;;;4.68;2.25;;;;;;;22.54;50.16;100751.22;5114580;28;20039;-65
2023/10/04 04:01:20;;;;;;;4.40;2.47;;;;;;;22.54;50.15;100759.38;5114497;28;20051;-65
2023/10/04 04:03:49;;;;;;;5.88;2.67;;;;;;;22.53;50.16;100760.38;5114375;28;20043;-65
2023/10/04 04:06:18;;;;;;;5.20;2.67;;;;;;;22.54;50.27;100767.53;5114294;28;20507;-65
2023/10/04 04:08:47;;;;;;;5.38;2.45;;;;;;;22.52;50.41;100773.13;5114606;28;20082;-65
2023/10/04 04:11:17;;;;;;;3.80;2.20;;;;;;;22.53;50.41;100776.69;5114240;28;20083;-65
2023/10/04 04:13:46;;;;;;;5.20;2.40;;;;;;;22.54;50.22;100781.13;5114241;28;20039;-65
2023/10/04 04:16:17;;;;;;;5.25;2.42;;;;;;;22.52;50.21;100775.84;5113954;28;20397;-65
2023/10/04 04:18:51;;;;;;;4.82;2.40;;;;;;;22.50;50.04;100786.03;5114141;28;20451;-65
2023/10/04 04:21:19;;;;;;;5.00;2.50;;;;;;;22.52;50.22;100813.06;5114182;28;20078;-65
2023/10/04 04:23:48;;;;;;;4.53;2.30;;;;;;;22.51;50.31;100803.19;5114102;28;20055;-65
2023/10/04 04:26:16;;;;;;;4.57;2.30;;;;;;;22.51;50.45;100803.19;5114037;28;20433;-65
2023/10/04 04:28:47;;;;;;;4.97;2.20;;;;;;;22.51;50.50;100811.34;5114036;28;20217;-65
2023/10/04 04:31:20;;;;;;;4.20;2.17;;;;;;;22.51;50.37;100805.91;5113632;28;20048;-65
2023/10/04 04:33:48;;;;;;;;;;;;;;;22.51;50.40;100814.06;5114537;28;20043;-65
2023/10/04 04:36:25;;;;;;;4.97;2.45;;;;;;;22.51;50.37;100811.34;5113643;28;19919;-65
2023/10/04 04:38:55;;;;;;;4.13;2.03;;;;;;;22.50;50.18;100817.78;5113947;28;20040;-65
2023/10/04 04:41:26;;;;;;;4.25;2.22;;;;;;;22.48;50.13;100811.63;5113722;28;20071;-65
2023/10/04 04:43:55;;;;;;;4.10;2.22;;;;;;;22.48;50.25;100811.63;5113373;28;20078;-65
2023/10/04 04:46:25;;;;;;;5.43;2.03;;;;;;;22.48;50.35;100814.34;5113345;28;20481;-64
2023/10/04 04:48:55;;;;;;;4.97;2.10;;;;;;;22.48;50.39;100817.06;5113601;28;20044;-64
2023/10/04 04:51:24;;;;;;;4.00;1.98;;;;;;;22.46;49.83;100824.53;5113429;28;20050;-66
2023/10/04 04:53:53;;;;;;;4.65;2.10;;;;;;;22.44;49.92;100842.88;5113157;28;20416;-65
2023/10/04 04:56:23;;;;;;;3.70;1.90;;;;;;;22.44;50.02;100840.16;5113071;28;20481;-66
2023/10/04 04:58:55;;;;;;;4.13;2.10;;;;;;;22.44;50.36;100853.75;5113297;28;20050;-65
2023/10/04 05:01:26;;;;;;;4.45;2.10;;;;;;;22.45;50.37;100850.88;5113344;28;20465;-65
2023/10/04 05:03:54;;;;;;;3.80;1.98;;;;;;;22.44;50.22;100849.16;5113100;28;20050;-66
2023/10/04 05:06:23;;;;;;;4.22;2.30;;;;;;;22.45;50.37;100860.88;5113171;28;20040;-66
2023/10/04 05:08:54;;;;;;;4.28;2.00;;;;;;;22.45;50.11;100866.31;5112863;28;20052;-66
2023/10/04 05:11:24;;;;;;;3.35;1.83;;;;;;;22.44;50.20;100853.75;5112964;28;20067;-65
2023/10/04 05:13:53;;;;;;;4.32;2.10;;;;;;;22.45;50.39;100877.19;5112992;28;20039;-65
2023/10/04 05:16:21;;;;;;;4.53;2.13;;;;;;;22.44;50.21;100879.06;5112690;28;20043;-66
2023/10/04 05:18:52;;;;;;;3.70;2.05;;;;;;;22.42;50.46;100881.09;5112629;28;20132;-65
2023/10/04 05:21:20;;;;;;;3.92;2.00;;;;;;;22.45;50.28;100890.78;5112469;28;20109;-65
2023/10/04 05:23:49;;;;;;;4.40;2.17;;;;;;;22.46;50.07;100906.06;5112741;28;20511;-65
2023/10/04 05:26:19;;;;;;;3.33;1.67;;;;;;;22.45;50.01;100909.81;5112879;28;20050;-66
2023/10/04 05:28:47;;;;;;;4.45;1.90;;;;;;;22.45;50.06;100917.97;5111846;28;20097;-65
2023/10/04 05:31:15;;;;;;;3.90;1.80;;;;;;;22.45;50.39;100923.41;5112150;28;20126;-65
2023/10/04 05:33:44;;;;;;;3.63;1.75;;;;;;;22.46;50.12;100928.69;5112478;28;20093;-65
2023/10/04 05:36:14;;;;;;;3.80;1.95;;;;;;;22.45;50.00;100935.13;5111951;28;20058;-65
2023/10/04 05:38:42;;;;;;;3.05;1.70;;;;;;;22.44;50.12;100938.00;5112245;28;20435;-66
2023/10/04 05:41:11;;;;;;;4.55;2.17;;;;;;;22.44;49.93;100935.28;5112149;28;20050;-66
2023/10/04 05:43:39;;;;;;;3.80;1.88;;;;;;;22.44;49.75;100927.13;5112311;28;20051;-66
2023/10/04 05:46:08;;;;;;;3.72;1.77;;;;;;;22.43;49.78;100930.84;5112088;28;20059;-66
2023/10/04 05:48:36;;;;;;;4.03;2.03;;;;;;;22.41;49.69;100925.59;5112177;28;20050;-66
2023/10/04 05:51:08;;;;;;;4.35;1.90;;;;;;;22.41;49.69;100939.16;5112231;28;20104;-66
2023/10/04 05:53:38;;;;;;;3.30;1.70;;;;;;;22.40;49.67;100945.63;5111950;28;20503;-65
2023/10/04 05:56:06;;;;;;;5.90;1.80;;;;;;;22.38;49.60;100953.03;5111705;28;20044;-65
2023/10/04 05:58:35;;;;;;;4.00;2.00;;;;;;;22.40;49.84;100971.94;5112012;28;20046;-66
2023/10/04 06:01:03;;;;;;;4.57;1.85;;;;;;;22.40;50.15;100980.94;5111626;28;20040;-66
2023/10/04 06:03:34;;;;;;;5.80;2.10;;;;;;;22.38;50.16;100973.94;5110452;28;20051;-66
2023/10/04 06:06:04;;;;;;;3.45;1.90;;;;;;;22.40;50.30;100977.38;5111280;28;20043;-65
2023/10/04 06:08:33;;;;;;;4.55;1.80;;;;;;;22.40;50.38;100991.81;5111441;28;20049;-65
2023/10/04 06:11:04;;;;;;;5.88;2.00;;;;;;;22.39;50.41;100984.69;5111363;28;20036;-64
2023/10/04 06:13:34;;;;;;;4.90;1.63;;;;;;;22.41;50.68;100996.25;5111355;28;20051;-66
2023/10/04 06:16:05;;;;;;;5.22;2.00;;;;;;;22.41;50.63;101000.84;5111378;28;20511;-66
2023/10/04 06:18:33;;;;;;;4.75;1.80;;;;;;;22.42;50.72;101007.97;5093471;28;20048;-66
2023/10/04 06:21:01;;;;;;;5.07;1.73;;;;;;;22.40;50.92;101007.28;5110386;28;20408;-65
2023/10/04 06:23:31;;;;;;;4.82;1.73;;;;;;;22.43;50.88;101015.13;5110165;28;20047;-66
2023/10/04 06:25:59;;;;;;;3.38;1.88;;;;;;;22.42;50.60;101002.53;5109314;28;20109;-66
2023/10/04 06:28:29;;;;;;;4.63;1.73;;;;;;;22.43;50.88;101012.41;5111814;28;20047;-65
2023/10/04 06:30:58;;;;;;;3.92;2.00;;;;;;;22.42;50.95;101025.13;5111826;28;20135;-65
2023/10/04 06:33:26;;;;;;;4.28;1.80;;;;;;;22.42;50.68;101032.44;5111134;28;20055;-66
2023/10/04 06:35:55;;;;;;;3.88;1.83;;;;;;;22.40;50.10;101029.03;5112270;28;20437;-65
2023/10/04 06:38:24;;;;;;;3.75;1.88;;;;;;;22.39;50.39;101024.56;5111624;28;20390;-66
2023/10/04 06:40:53;;;;;;;3.47;1.60;;;;;;;22.39;50.37;101046.31;5115100;28;20043;-66
2023/10/04 06:43:21;;;;;;;4.43;1.77;;;;;;;22.39;50.31;101030.00;5115594;28;20488;-66
2023/10/04 06:45:51;;;;;;;3.67;1.77;;;;;;;22.38;50.31;101028.28;5115943;28;20087;-68
2023/10/04 06:48:19;;;;;;;4.18;1.90;;;;;;;22.39;50.30;101030.00;5116014;28;20051;-64
2023/10/04 06:50:50;;;;;;;3.97;1.80;;;;;;;22.40;50.50;101037.19;5116445;28;20152;-69
2023/10/04 06:53:22;;;;;;;4.18;1.80;;;;;;;22.40;50.50;101031.75;5115626;28;20488;-67
2023/10/04 06:55:50;;;;;;;4.57;1.63;;;;;;;22.38;49.99;101025.56;5115486;28;20071;-67
2023/10/04 06:58:18;;;;;;;3.83;1.70;;;;;;;22.37;49.63;101021.16;5115610;28;20051;-67
2023/10/04 07:00:47;;;;;;;4.43;1.65;;;;;;;22.34;49.23;101024.16;5115417;28;20044;-67
2023/10/04 07:03:17;;;;;;;3.53;1.40;;;;;;;22.31;48.89;101043.50;5115206;28;20130;-67
2023/10/04 07:05:47;;;;;;;3.67;1.45;;;;;;;22.28;49.17;101037.34;5115475;28;20466;-67
2023/10/04 07:08:16;;;;;;;3.45;1.70;;;;;;;22.30;49.41;101049.94;5115005;28;20079;-67
2023/10/04 07:10:45;;;;;;;3.33;1.63;;;;;;;22.32;49.24;101067.81;5115242;28;20047;-68
2023/10/04 07:13:13;;;;;;;4.05;1.70;;;;;;;22.34;49.72;101068.50;5114974;28;20150;-67
2023/10/04 07:15:44;;;;;;;3.80;1.60;;;;;;;22.36;49.93;101079.22;5115304;28;20075;-68
2023/10/04 07:18:13;;;;;;;5.93;2.17;;;;;;;22.36;49.99;101071.06;5115265;28;20104;-68
2023/10/04 07:20:43;;;;;;;4.13;1.70;;;;;;;22.37;50.00;101072.78;5114763;28;20101;-68
2023/10/04 07:23:13;;;;;;;4.10;1.67;;;;;;;22.37;50.39;101072.78;5114801;28;20040;-65
2023/10/04 07:25:53;;;;;;;3.08;1.48;;;;;;;22.36;50.13;101073.78;5114749;28;20048;-66
2023/10/04 07:28:24;;;;;;;4.80;1.85;;;;;;;22.36;49.94;101076.50;5114966;28;20051;-66
2023/10/04 07:30:54;;;;;;;3.75;1.45;;;;;;;22.37;49.76;101087.22;5114150;28;20047;-66
2023/10/04 07:33:22;;;;;;;6.10;1.60;;;;;;;22.39;50.09;101092.50;5114762;28;20043;-66
2023/10/04 07:35:53;;;;;;;3.88;1.52;;;;;;;22.37;50.18;101092.66;5114806;28;20566;-67
2023/10/04 07:38:22;;;;;;;3.50;1.40;;;;;;;22.38;50.05;101088.09;5114528;28;20059;-66
2023/10/04 07:40:50;;;;;;;6.78;1.67;;;;;;;22.38;50.17;101088.09;5114628;28;20048;-67
2023/10/04 07:43:18;;;;;;;5.53;1.70;;;;;;;22.39;50.32;101079.81;5114702;28;20039;-66
2023/10/04 07:45:47;;;;;;;4.15;1.77;;;;;;;22.39;49.96;101077.09;5114365;28;20542;-66
2023/10/04 07:48:17;;;;;;;3.78;1.55;;;;;;;22.40;50.08;101086.09;5114663;28;20040;-66
2023/10/04 07:50:46;;;;;;;3.30;1.40;;;;;;;22.39;49.92;101078.91;5114003;28;20417;-67
2023/10/04 07:53:17;;;;;;;3.78;1.55;;;;;;;22.39;49.95;101087.06;5114437;28;20050;-66
2023/10/04 07:55:45;;;;;;;4.10;1.40;;;;;;;22.40;50.06;101091.53;5114304;28;20488;-67
2023/10/04 07:58:14;;;;;;;3.08;1.52;;;;;;;22.40;49.76;101102.41;5114244;28;20067;-66
2023/10/04 08:00:42;;;;;;;6.80;1.80;;;;;;;22.39;49.71;101093.41;5114682;28;20054;-67
2023/10/04 08:03:10;;;;;;;3.75;1.70;;;;;;;22.41;49.67;101094.09;5114329;28;20044;-66
2023/10/04 08:05:39;;;;;;;2.80;1.30;;;;;;;22.40;49.70;101089.66;5114336;28;20057;-66
2023/10/04 08:08:08;;;;;;;3.05;1.60;;;;;;;22.41;49.64;101093.25;5114186;28;20481;-66
2023/10/04 08:10:39;;;;;;;3.95;1.50;;;;;;;22.42;49.61;101094.97;5114230;28;20181;-66
2023/10/04 08:13:10;;;;;;;3.45;1.60;;;;;;;22.42;49.87;101092.25;5114062;28;20437;-66
2023/10/04 08:15:39;;;;;;;3.28;1.50;;;;;;;22.43;49.80;101100.25;5114417;28;20066;-66
2023/10/04 08:18:08;;;;;;;3.88;1.50;;;;;;;22.44;49.85;101099.22;5114258;28;20457;-66
2023/10/04 08:20:38;;;;;;;4.45;1.55;;;;;;;22.44;49.51;101111.97;5114656;28;20123;-66
2023/10/04 08:23:06;;;;;;;3.50;1.40;;;;;;;22.43;49.23;101129.28;5114006;28;20051;-67
2023/10/04 08:25:35;;;;;;;3.17;1.42;;;;;;;22.43;49.22;101140.16;5113625;28;20101;-66
2023/10/04 08:28:09;;;;;;;2.85;1.50;;;;;;;22.41;49.16;101137.59;5113959;28;20040;-66
2023/10/04 08:30:40;;;;;;;2.83;1.27;;;;;;;22.40;49.09;101132.31;5113751;28;20044;-66
2023/10/04 08:33:11;;;;;;;3.70;1.60;;;;;;;22.42;48.91;101139.31;5113638;28;20131;-66
2023/10/04 08:35:39;;;;;;;2.72;1.33;;;;;;;22.42;49.33;101139.31;5113778;28;20039;-66
2023/10/04 08:38:07;;;;;;;2.97;1.23;;;;;;;22.41;49.40;101129.44;5113601;28;20055;-66
2023/10/04 08:40:42;;;;;;;2.45;1.38;;;;;;;22.42;49.22;101133.00;5113725;28;20126;-66
2023/10/04 08:43:12;;;;;;;3.63;1.10;;;;;;;22.41;49.03;101132.16;5113467;28;20048;-66
2023/10/04 08:45:42;;;;;;;2.95;1.30;;;;;;;22.41;48.91;101125.88;5113708;28;20093;-65
2023/10/04 08:48:12;;;;;;;2.50;1.30;;;;;;;22.40;48.63;101132.31;5113496;28;20039;-66
2023/10/04 08:50:49;;;;;;;3.63;1.30;;;;;;;22.42;48.92;101146.59;5113182;28;20047;-66
2023/10/04 08:53:35;;;;;;;2.90;1.25;;;;;;;22.42;49.02;101138.44;5113464;28;20051;-66
2023/10/04 08:56:09;;;;;;;4.10;1.20;;;;;;;22.42;48.68;101127.56;5113364;28;20138;-67
2023/10/04 08:58:41;;;;;;;3.33;1.42;;;;;;;22.43;48.76;101134.72;5113069;28;20048;-66
2023/10/04 09:01:11;;;;;;;4.05;1.60;;;;;;;22.43;48.73;101148.31;5112948;28;20056;-66
2023/10/04 09:03:41;;;;;;;3.33;1.35;;;;;;;22.43;48.39;101151.88;5112440;28;20108;-66
2023/10/04 09:06:14;;;;;;;3.30;1.40;;;;;;;22.42;48.73;101154.75;5112723;28;20481;-66
2023/10/04 09:08:44;;;;;;;2.42;1.45;;;;;;;22.43;48.62;101157.31;5113089;28;20467;-66
2023/10/04 09:11:12;;;;;;;2.40;1.38;;;;;;;22.44;48.85;101152.75;5112703;28;20043;-66
2023/10/04 09:13:47;;;;;;;3.97;1.55;;;;;;;22.45;48.83;101138.13;5112931;28;20100;-67
2023/10/04 09:16:28;;;;;;;3.50;1.50;;;;;;;22.45;48.80;101141.72;5113173;28;20409;-66
2023/10/04 09:19:07;;;;;;;2.33;1.20;;;;;;;22.47;48.63;101141.56;5112887;28;20098;-66
2023/10/04 09:21:38;;;;;;;2.75;1.10;;;;;;;22.49;48.92;101147.72;5112830;28;20455;-66
2023/10/04 09:24:09;;;;;;;3.03;1.52;;;;;;;22.52;49.08;101161.03;5112664;28;20043;-66
2023/10/04 09:26:38;;;;;;;3.28;1.40;;;;;;;22.53;49.00;101160.00;5112812;28;20047;-66
2023/10/04 09:29:11;;;;;;;4.55;1.55;;;;;;;22.53;48.97;101158.16;5112592;28;20502;-66
2023/10/04 09:31:50;;;;;;;3.63;1.77;;;;;;;22.55;48.85;101160.72;5112633;28;20040;-66
2023/10/04 09:34:19;;;;;;;2.47;1.40;;;;;;;22.55;48.53;101156.13;5112402;28;20054;-67
2023/10/04 09:36:47;;;;;;;2.65;1.30;;;;;;;22.56;47.93;101157.00;5112614;28;20048;-66
2023/10/04 09:39:23;;;;;;;2.40;1.30;;;;;;;22.57;47.93;101159.56;5112247;28;20049;-66
2023/10/04 09:41:54;;;;;;;3.88;1.70;;;;;;;22.59;47.79;101153.13;5112395;28;20052;-66
2023/10/04 09:44:25;;;;;;;4.18;1.40;;;;;;;22.62;47.86;101166.44;5112163;28;20040;-66
2023/10/04 09:47:00;;;;;;;3.38;1.40;;;;;;;22.63;47.85;101160.84;5112104;28;20408;-66
2023/10/04 09:49:31;;;;;;;2.28;1.13;;;;;;;22.66;47.65;101157.81;5112316;28;20066;-66
2023/10/04 09:52:01;;;;;;;2.65;1.33;;;;;;;22.69;47.76;101162.97;5112348;28;20067;-66
2023/10/04 09:54:30;;;;;;;4.10;1.50;;;;;;;22.71;47.92;101166.41;5112262;28;20044;-66
2023/10/04 09:57:00;;;;;;;3.33;1.20;;;;;;;22.76;47.82;101163.22;5112391;28;20044;-66
2023/10/04 09:59:31;;;;;;;2.40;1.13;;;;;;;22.81;47.84;101166.34;5112128;28;20048;-65
2023/10/04 10:02:00;;;;;;;2.20;1.00;;;;;;;22.82;47.98;101163.47;5111953;28;20469;-66
2023/10/04 10:04:29;;;;;;;4.00;1.52;;;;;;;22.85;47.50;101162.34;5112061;28;20082;-66
2023/10/04 10:07:09;;;;;;;3.40;1.35;;;;;;;22.86;47.28;101164.06;5112077;28;20051;-67
2023/10/04 10:09:51;;;;;;;3.10;1.40;;;;;;;22.85;46.71;101162.34;5112086;28;20044;-66
2023/10/04 10:12:30;;;;;;;3.63;1.05;;;;;;;22.89;46.51;101171.94;5111815;28;20056;-66
2023/10/04 10:15:01;;;;;;;4.88;1.60;;;;;;;22.91;46.11;101182.66;5111767;28;20043;-66
2023/10/04 10:17:30;;;;;;;3.00;1.30;;;;;;;22.94;45.71;101176.91;5112205;28;20044;-66
2023/10/04 10:20:01;;;;;;;2.70;1.50;;;;;;;22.96;46.01;101180.34;5111922;28;20161;-66
2023/10/04 10:22:32;;;;;;;2.53;1.08;;;;;;;23.01;45.79;101173.47;5111941;28;20098;-66
2023/10/04 10:25:14;;;;;;;2.72;1.30;;;;;;;23.05;45.70;101171.28;5112157;28;20047;-66
2023/10/04 10:27:43;;;;;;;2.10;1.07;;;;;;;23.10;45.42;101168.97;5112119;28;20039;-66
2023/10/04 10:30:16;;;;;;;3.30;1.20;;;;;;;23.13;45.26;101174.09;5111931;28;20047;-66
2023/10/04 10:32:53;;;;;;;;;;;;;;;23.17;44.79;101178.25;5111982;28;20467;-65
2023/10/04 10:35:56;;;;;;;2.17;1.13;;;;;;;23.21;44.75;101179.66;5111508;28;20384;-66
2023/10/04 10:38:44;;;;;;;3.50;1.23;;;;;;;23.26;44.61;101177.34;5111588;28;20052;-66
2023/10/04 10:41:52;;;;;;;3.70;1.33;;;;;;;23.32;44.56;101187.59;5111746;28;20457;-66
2023/10/04 10:44:23;;;;;;;3.70;1.30;;;;;;;23.37;44.69;101174.41;5111649;28;20048;-66
2023/10/04 10:46:57;;;;;;;3.10;1.30;;;;;;;23.39;43.85;101171.53;5111722;28;20119;-66
2023/10/04 10:49:39;;;;;;;3.00;1.35;;;;;;;23.43;44.10;101179.22;5111586;28;20062;-66
2023/10/04 10:52:10;;;;;;;3.50;1.25;;;;;;;23.46;44.09;101183.53;5111410;28;20048;-65
2023/10/04 10:54:43;;;;;;;2.78;1.17;;;;;;;23.53;43.77;101175.59;5111478;28;20043;-66
2023/10/04 10:57:11;;;;;;;3.05;1.20;;;;;;;23.54;43.78;101175.41;5111709;28;20039;-66
2023/10/04 10:59:40;;;;;;;2.72;1.30;;;;;;;23.52;43.72;101169.28;5111335;28;20055;-66
2023/10/04 11:02:10;;;;;;;3.83;1.00;;;;;;;23.50;43.70;101179.47;5112011;28;20044;-67
2023/10/04 11:04:38;;;;;;;3.28;1.48;;;;;;;23.49;43.44;101179.63;5111466;28;20047;-65
2023/10/04 11:07:07;;;;;;;3.78;1.50;;;;;;;23.48;43.11;101169.75;5111608;28;20070;-66
2023/10/04 11:09:38;;;;;;;4.22;1.30;;;;;;;23.52;43.09;101182.03;5111686;28;20050;-66
2023/10/04 11:12:14;;;;;;;3.00;1.17;;;;;;;23.59;43.03;101167.69;5111423;28;20052;-68
2023/10/04 11:14:42;;;;;;;4.38;1.40;;;;;;;23.65;42.94;101171.69;5111435;28;20043;-67
2023/10/04 11:17:14;;;;;;;3.35;1.25;;;;;;;23.62;43.11;101166.53;5111207;28;20043;-66
2023/10/04 11:19:43;;;;;;;2.78;1.17;;;;;;;23.62;43.21;101161.94;5111750;28;20052;-65
2023/10/04 11:22:14;;;;;;;2.63;1.20;;;;;;;23.60;43.26;101168.56;5111296;28;20047;-66
2023/10/04 11:24:43;;;;;;;2.95;1.48;;;;;;;23.62;43.45;101172.81;5111345;28;20048;-67
2023/10/04 11:27:12;;;;;;;3.53;1.42;;;;;;;23.65;43.01;101175.25;5113135;28;20054;-67
2023/10/04 11:29:43;;;;;;;3.28;1.27;;;;;;;23.69;42.89;101173.06;5114596;28;20071;-66
2023/10/04 11:32:12;;;;;;;3.92;1.70;;;;;;;23.70;42.82;101164.75;5114640;28;20096;-67
2023/10/04 11:34:44;;;;;;;2.72;1.27;;;;;;;23.80;42.79;101163.81;5114777;28;20101;-66
2023/10/04 11:37:13;;;;;;;3.38;1.30;;;;;;;23.84;43.04;101160.63;5114943;28;20089;-67
2023/10/04 11:39:42;;;;;;;3.10;1.48;;;;;;;23.87;42.90;101149.41;5114560;28;20100;-67
2023/10/04 11:42:19;;;;;;;3.88;1.55;;;;;;;23.93;43.18;101162.41;5114766;28;20048;-67